LEPA/PMI METAR and TAF weather

Enter ICAO airport designator
Station Type Date Time Source
LEPA METAR 2018/12/17 16:30 UTC NOAA

LEPA 171630Z 13002KT 9999 FEW030 12/08 Q1028 NOSIG


Station Type Date Time Source
LEPA Decoded METAR 2018/12/17 16:30 UTC NOAA

Palma De Mallorca / Son San Juan, Spain (LEPA) 39-33N 002-44E 8M
Dec 17, 2018 - 11:30 AM EST / 2018.12.17 1630 UTC
Wind: from the SE (130 degrees) at 2 MPH (2 KT):0
Visibility: greater than 7 mile(s):0
Sky conditions: mostly clear
Temperature: 53 F (12 C)
Dew Point: 46 F (8 C)
Relative Humidity: 76%
Pressure (altimeter): 30.36 in. Hg (1028 hPa)
ob: LEPA 171630Z 13002KT 9999 FEW030 12/08 Q1028 NOSIG
cycle: 16

Station Type Date Time Source
LEPA TAF 2018/12/17 12:27 UTC NOAA

TAF LEPA 171100Z 1712/1812 32010KT 9999 FEW025 TX16/1712Z TN04/1806Z PROB30
TEMPO 1712/1714 32015G25KT
BECMG 1714/1716 VRB03KT


Example: see airport list